createdAt,value
2022-12-28T00:01:22.642Z,5.05
2022-12-28T00:03:49.644Z,4.99
2022-12-28T00:06:16.834Z,4.95
2022-12-28T00:08:43.677Z,4.89
2022-12-28T00:11:25.480Z,5.34
2022-12-28T00:13:55.843Z,5.20
2022-12-28T00:16:41.752Z,5.29
2022-12-28T00:19:15.177Z,5.44
2022-12-28T00:21:42.626Z,5.61
2022-12-28T00:24:12.404Z,5.64
2022-12-28T00:26:39.516Z,5.25
2022-12-28T00:29:06.580Z,5.38
2022-12-28T00:31:34.060Z,5.05
2022-12-28T00:34:01.375Z,5.55
2022-12-28T00:37:09.268Z,5.09
2022-12-28T00:39:14.920Z,5.15
2022-12-28T00:41:42.420Z,5.05
2022-12-28T00:44:10.457Z,4.82
2022-12-28T00:46:37.170Z,5.03
2022-12-28T00:49:03.892Z,5.76
2022-12-28T00:51:31.368Z,5.17
2022-12-28T00:53:59.632Z,5.50
2022-12-28T00:56:27.164Z,5.52
2022-12-28T00:58:57.892Z,5.80
2022-12-28T01:01:25.991Z,5.95
2022-12-28T01:03:54.796Z,5.68
2022-12-28T01:06:21.524Z,6.13
2022-12-28T01:08:48.618Z,6.12
2022-12-28T01:11:24.639Z,6.60
2022-12-28T01:13:53.328Z,5.86
2022-12-28T01:16:29.320Z,6.33
2022-12-28T01:19:00.509Z,7.13
2022-12-28T01:21:29.930Z,8.06
2022-12-28T01:23:58.274Z,7.32
2022-12-28T01:26:25.742Z,6.82
2022-12-28T01:28:52.477Z,6.20
2022-12-28T01:31:19.889Z,5.99
2022-12-28T01:33:46.706Z,5.99
2022-12-28T01:36:17.900Z,6.03
2022-12-28T01:38:44.993Z,6.05
2022-12-28T01:41:13.598Z,6.37
2022-12-28T01:43:42.556Z,6.31
2022-12-28T01:46:38.785Z,6.63
2022-12-28T01:49:26.334Z,7.25
2022-12-28T01:52:05.179Z,6.80
2022-12-28T01:54:47.034Z,6.99
2022-12-28T01:57:14.193Z,6.71
2022-12-28T01:59:44.223Z,6.67
2022-12-28T02:02:11.709Z,6.88
2022-12-28T02:04:38.680Z,7.14
2022-12-28T02:10:42.683Z,7.35
2022-12-28T02:13:13.250Z,8.32
2022-12-28T02:15:40.035Z,7.78
2022-12-28T02:18:06.774Z,7.28
2022-12-28T02:20:51.922Z,7.14
2022-12-28T02:23:58.968Z,8.27
2022-12-28T02:26:33.107Z,7.91
2022-12-28T02:29:07.698Z,7.86
2022-12-28T02:31:49.625Z,8.22
2022-12-28T02:34:25.684Z,8.26
2022-12-28T02:37:11.956Z,8.28
2022-12-28T02:39:42.095Z,7.88
2022-12-28T02:42:09.098Z,8.24
2022-12-28T02:44:36.904Z,8.39
2022-12-28T02:47:04.013Z,8.82
2022-12-28T02:49:30.759Z,8.76
2022-12-28T02:52:07.938Z,9.37
2022-12-28T02:54:59.597Z,9.01
2022-12-28T02:57:50.006Z,8.69
2022-12-28T03:00:18.560Z,9.22
2022-12-28T03:02:49.690Z,9.23
2022-12-28T03:05:34.281Z,9.13
2022-12-28T03:08:02.504Z,8.99
2022-12-28T03:10:44.817Z,9.36
2022-12-28T03:13:41.493Z,9.36
2022-12-28T03:16:13.078Z,9.72
2022-12-28T03:18:40.948Z,9.40
2022-12-28T03:21:09.274Z,9.41
2022-12-28T03:23:36.016Z,9.60
2022-12-28T03:26:03.358Z,9.26
2022-12-28T03:28:30.897Z,8.52
2022-12-28T03:30:59.662Z,8.92
2022-12-28T03:33:27.169Z,9.32
2022-12-28T03:35:58.672Z,9.38
2022-12-28T03:38:29.494Z,9.80
2022-12-28T03:41:06.418Z,10.11
2022-12-28T03:43:41.520Z,9.74
2022-12-28T03:46:18.873Z,9.53
2022-12-28T03:48:45.611Z,9.57
2022-12-28T03:51:15.689Z,9.93
2022-12-28T03:53:43.807Z,10.03
2022-12-28T03:56:21.483Z,9.56
2022-12-28T03:58:49.372Z,9.35
2022-12-28T04:01:16.311Z,9.46
2022-12-28T04:03:43.366Z,9.53
2022-12-28T04:06:14.217Z,9.48
2022-12-28T04:08:40.948Z,8.68
2022-12-28T04:11:09.565Z,8.84
2022-12-28T04:13:36.288Z,8.70
2022-12-28T04:16:06.133Z,8.53
2022-12-28T04:18:34.987Z,8.15
2022-12-28T04:21:02.825Z,8.54
2022-12-28T04:23:30.683Z,8.05
2022-12-28T04:26:07.792Z,8.38
2022-12-28T04:28:34.897Z,8.23
2022-12-28T04:31:02.054Z,8.03
2022-12-28T04:33:31.981Z,8.36
2022-12-28T04:36:09.471Z,8.37
2022-12-28T04:38:36.242Z,9.11
2022-12-28T04:41:04.081Z,9.10
2022-12-28T04:43:31.258Z,8.71
2022-12-28T04:45:58.788Z,8.50
2022-12-28T04:48:26.703Z,9.15
2022-12-28T04:50:55.254Z,9.04
2022-12-28T04:53:23.372Z,8.98
2022-12-28T04:55:51.191Z,9.05
2022-12-28T04:58:17.937Z,8.93
2022-12-28T05:00:44.988Z,8.40
2022-12-28T05:03:11.921Z,8.05
2022-12-28T05:05:40.451Z,8.44
2022-12-28T05:08:10.144Z,8.39
2022-12-28T05:10:37.112Z,8.11
2022-12-28T05:13:04.259Z,8.03
2022-12-28T05:15:30.976Z,8.28
2022-12-28T05:17:57.752Z,8.71
2022-12-28T05:20:24.985Z,8.86
2022-12-28T05:23:07.052Z,8.86
2022-12-28T05:25:34.157Z,9.08
2022-12-28T05:28:00.927Z,8.94
2022-12-28T05:30:29.184Z,8.65
2022-12-28T05:32:56.909Z,8.66
2022-12-28T05:35:26.585Z,8.60
2022-12-28T05:38:22.229Z,8.79
2022-12-28T05:40:49.066Z,8.72
2022-12-28T05:43:15.769Z,8.50
2022-12-28T05:45:42.477Z,8.75
2022-12-28T05:48:09.261Z,8.68
2022-12-28T05:50:36.269Z,8.31
2022-12-28T05:53:02.974Z,8.68
2022-12-28T05:55:29.903Z,8.43
2022-12-28T05:57:56.624Z,8.40
2022-12-28T06:00:26.278Z,8.76
2022-12-28T06:02:53.051Z,8.50
2022-12-28T06:05:19.783Z,8.44
2022-12-28T06:07:46.533Z,8.65
2022-12-28T06:10:13.266Z,8.46
2022-12-28T06:12:40.356Z,8.74
2022-12-28T06:15:07.871Z,8.60
2022-12-28T06:17:34.639Z,16.84
2022-12-28T06:20:01.397Z,12.71
2022-12-28T06:22:28.158Z,10.57
2022-12-28T06:24:54.893Z,10.98
2022-12-28T06:27:21.658Z,8.95
2022-12-28T06:29:48.458Z,8.97
2022-12-28T06:32:23.626Z,8.65
2022-12-28T06:34:50.378Z,8.61
2022-12-28T06:37:17.106Z,8.84
2022-12-28T06:39:44.081Z,8.27
2022-12-28T06:42:10.813Z,8.22
2022-12-28T06:44:44.150Z,8.58
2022-12-28T06:47:35.991Z,8.49
2022-12-28T06:50:03.700Z,7.87
2022-12-28T06:52:30.539Z,7.99
2022-12-28T06:54:57.340Z,7.99
2022-12-28T06:57:24.065Z,8.26
2022-12-28T06:59:50.857Z,8.20
2022-12-28T07:02:18.120Z,8.17
2022-12-28T07:04:46.227Z,7.97
2022-12-28T07:07:14.406Z,8.41
2022-12-28T07:09:41.613Z,8.24
2022-12-28T07:12:11.242Z,8.03
2022-12-28T07:14:38.243Z,8.41
2022-12-28T07:17:08.058Z,8.33
2022-12-28T07:19:35.319Z,8.65
2022-12-28T07:22:02.137Z,8.36
2022-12-28T07:24:29.073Z,8.26
2022-12-28T07:27:24.546Z,12.72
2022-12-28T07:29:51.814Z,11.95
2022-12-28T07:32:18.881Z,9.72
2022-12-28T07:34:46.088Z,8.22
2022-12-28T07:37:13.154Z,8.41
2022-12-28T07:39:39.898Z,8.43
2022-12-28T07:42:06.662Z,8.91
2022-12-28T07:44:38.051Z,8.70
2022-12-28T07:47:06.187Z,8.23
2022-12-28T07:49:34.051Z,8.35
2022-12-28T07:52:00.825Z,8.25
2022-12-28T07:54:27.782Z,8.07
2022-12-28T07:56:54.662Z,8.49
2022-12-28T07:59:27.436Z,8.73
2022-12-28T08:01:59.176Z,8.38
2022-12-28T08:04:26.327Z,7.98
2022-12-28T08:06:53.487Z,8.37
2022-12-28T08:09:21.291Z,8.46
2022-12-28T08:11:48.828Z,8.41
2022-12-28T08:14:15.882Z,8.69
2022-12-28T08:16:43.422Z,8.58
2022-12-28T08:19:10.210Z,8.38
2022-12-28T08:21:41.917Z,7.90
2022-12-28T08:24:08.794Z,8.20
2022-12-28T08:26:38.136Z,8.28
2022-12-28T08:29:09.551Z,8.16
2022-12-28T08:31:38.903Z,8.20
2022-12-28T08:34:07.672Z,8.43
2022-12-28T08:36:37.185Z,9.10
2022-12-28T08:39:04.083Z,9.41
2022-12-28T08:41:39.252Z,8.86
2022-12-28T08:44:06.108Z,8.89
2022-12-28T08:46:35.404Z,9.24
2022-12-28T08:49:02.449Z,8.44
2022-12-28T08:51:40.110Z,8.78
2022-12-28T08:54:09.593Z,8.47
2022-12-28T08:56:38.015Z,8.84
2022-12-28T08:59:04.825Z,8.89
2022-12-28T09:01:42.678Z,8.90
2022-12-28T09:04:19.247Z,8.60
2022-12-28T09:06:47.217Z,8.80
2022-12-28T09:09:15.229Z,8.63
2022-12-28T09:11:42.387Z,8.64
2022-12-28T09:14:10.837Z,8.24
2022-12-28T09:16:39.655Z,8.46
2022-12-28T09:19:08.693Z,8.38
2022-12-28T09:21:36.613Z,8.29
2022-12-28T09:24:03.565Z,7.90
2022-12-28T09:26:37.544Z,8.50
2022-12-28T09:29:06.480Z,7.88
2022-12-28T09:31:33.466Z,8.24
2022-12-28T09:36:47.280Z,6.89
2022-12-28T09:39:15.683Z,7.04
2022-12-28T09:41:51.175Z,7.16
2022-12-28T09:44:54.385Z,7.54
2022-12-28T09:47:44.316Z,7.45
2022-12-28T09:50:30.356Z,7.36
2022-12-28T09:53:30.675Z,7.83
2022-12-28T09:56:23.098Z,7.38
2022-12-28T09:58:50.272Z,7.45
2022-12-28T10:01:17.272Z,7.84
2022-12-28T10:03:47.280Z,7.79
2022-12-28T10:06:18.474Z,7.87
2022-12-28T10:09:15.030Z,7.96
2022-12-28T10:12:02.227Z,7.83
2022-12-28T10:14:29.765Z,8.17
2022-12-28T10:16:56.595Z,7.98
2022-12-28T10:19:25.162Z,7.91
2022-12-28T10:22:15.905Z,7.92
2022-12-28T10:24:45.189Z,8.00
2022-12-28T10:27:21.624Z,7.57
2022-12-28T10:29:50.342Z,7.58
2022-12-28T10:32:18.469Z,7.22
2022-12-28T10:34:59.061Z,7.37
2022-12-28T10:37:27.422Z,7.50
2022-12-28T10:39:58.875Z,7.56
2022-12-28T10:42:41.278Z,7.63
2022-12-28T10:45:34.453Z,7.38
2022-12-28T10:48:01.611Z,6.99
2022-12-28T10:50:51.230Z,6.53
2022-12-28T10:53:29.337Z,6.36
2022-12-28T10:56:01.782Z,6.45
2022-12-28T10:58:31.679Z,6.05
2022-12-28T11:01:18.175Z,6.03
2022-12-28T11:03:46.742Z,5.64
2022-12-28T11:06:13.367Z,5.59
2022-12-28T11:08:41.858Z,5.45
2022-12-28T11:11:17.652Z,5.14
2022-12-28T11:13:45.998Z,4.88
2022-12-28T11:16:13.081Z,5.17
2022-12-28T11:18:40.213Z,5.37
2022-12-28T11:21:18.394Z,5.67
2022-12-28T11:23:50.693Z,5.24
2022-12-28T11:26:18.070Z,5.02
2022-12-28T11:28:45.098Z,4.52
2022-12-28T11:31:21.579Z,4.22
2022-12-28T11:33:49.881Z,4.29
2022-12-28T11:36:21.356Z,4.32
2022-12-28T11:38:50.706Z,4.14
2022-12-28T11:41:30.174Z,3.68
2022-12-28T11:44:05.362Z,3.57
2022-12-28T11:46:35.345Z,3.79
2022-12-28T11:49:22.510Z,3.67
2022-12-28T11:51:51.172Z,4.11
2022-12-28T11:54:37.588Z,4.89
2022-12-28T11:57:05.692Z,5.08
2022-12-28T11:59:33.610Z,4.10
2022-12-28T12:02:04.387Z,4.11
2022-12-28T12:04:43.470Z,3.92
2022-12-28T12:07:16.199Z,3.83
2022-12-28T12:09:45.249Z,3.63
2022-12-28T12:12:18.036Z,3.38
2022-12-28T12:14:49.334Z,3.41
2022-12-28T12:21:11.642Z,3.12
2022-12-28T12:27:38.773Z,3.09
2022-12-28T12:30:50.000Z,3.10
2022-12-28T12:33:23.711Z,2.81
2022-12-28T12:36:19.953Z,2.77
2022-12-28T12:38:53.425Z,3.00
2022-12-28T12:41:35.136Z,2.93
2022-12-28T12:44:19.624Z,3.13
2022-12-28T12:50:30.350Z,3.12
2022-12-28T12:53:09.923Z,3.03
2022-12-28T12:55:43.614Z,3.11
2022-12-28T12:58:33.269Z,2.92
2022-12-28T13:01:26.134Z,2.82
2022-12-28T13:03:54.063Z,2.74
2022-12-28T13:06:22.586Z,2.80
2022-12-28T13:09:03.273Z,2.71
2022-12-28T13:11:31.952Z,2.86
2022-12-28T13:13:58.746Z,3.47
2022-12-28T13:16:26.240Z,2.75
2022-12-28T13:19:05.131Z,2.70
2022-12-28T13:22:19.625Z,2.93
2022-12-28T13:24:46.708Z,2.69
2022-12-28T13:27:19.666Z,2.70
2022-12-28T13:29:54.001Z,2.78
2022-12-28T13:32:37.574Z,2.91
2022-12-28T13:35:19.439Z,2.66
2022-12-28T13:38:12.484Z,2.93
2022-12-28T13:40:39.521Z,2.85
2022-12-28T13:43:18.729Z,2.85
2022-12-28T13:45:49.358Z,2.93
2022-12-28T13:48:18.746Z,2.87
2022-12-28T13:50:46.592Z,2.66
2022-12-28T13:53:15.807Z,2.90
2022-12-28T13:55:46.972Z,3.00
2022-12-28T13:58:38.293Z,3.16
2022-12-28T14:01:07.595Z,2.84
2022-12-28T14:03:40.617Z,2.81
2022-12-28T14:06:09.983Z,2.97
2022-12-28T14:08:38.038Z,3.12
2022-12-28T14:11:05.215Z,2.92
2022-12-28T14:13:32.562Z,2.71
2022-12-28T14:16:00.041Z,2.83
2022-12-28T14:18:27.400Z,2.89
2022-12-28T14:20:55.271Z,2.82
2022-12-28T14:23:45.285Z,2.79
2022-12-28T14:26:45.030Z,2.77
2022-12-28T14:29:15.887Z,2.58
2022-12-28T14:31:42.625Z,2.85
2022-12-28T14:34:21.378Z,2.89
2022-12-28T14:36:49.501Z,2.59
2022-12-28T14:39:25.346Z,3.26
2022-12-28T14:41:52.096Z,2.87
2022-12-28T14:44:39.425Z,2.89
2022-12-28T14:47:44.402Z,2.96
2022-12-28T14:50:21.357Z,2.80
2022-12-28T14:52:50.413Z,2.64
2022-12-28T14:55:29.239Z,2.87
2022-12-28T14:57:59.049Z,2.67
2022-12-28T15:00:33.923Z,2.79
2022-12-28T15:03:18.111Z,2.82
2022-12-28T15:05:47.416Z,3.32
2022-12-28T15:08:14.149Z,2.82
2022-12-28T15:13:53.531Z,2.73
2022-12-28T15:16:21.540Z,2.73
2022-12-28T15:18:49.916Z,2.86
2022-12-28T15:21:23.139Z,3.15
2022-12-28T15:23:50.660Z,2.76
2022-12-28T15:26:27.524Z,2.66
2022-12-28T15:28:54.483Z,2.53
2022-12-28T15:31:21.629Z,2.50
2022-12-28T15:33:48.648Z,2.78
2022-12-28T15:36:20.128Z,2.41
2022-12-28T15:38:47.408Z,2.43
2022-12-28T15:41:19.682Z,2.30
2022-12-28T15:43:50.028Z,2.46
2022-12-28T15:46:17.503Z,2.46
2022-12-28T15:48:47.695Z,2.46
2022-12-28T15:51:15.583Z,2.48
2022-12-28T15:53:42.345Z,2.52
2022-12-28T15:56:32.317Z,3.11
2022-12-28T15:59:01.181Z,3.08
2022-12-28T16:01:28.814Z,3.00
2022-12-28T16:03:57.052Z,2.98
2022-12-28T16:06:25.098Z,2.71
2022-12-28T16:08:55.863Z,2.52
2022-12-28T16:11:22.646Z,2.34
2022-12-28T16:14:00.553Z,2.68
2022-12-28T16:16:30.127Z,2.72
2022-12-28T16:18:57.797Z,2.60
2022-12-28T16:21:31.590Z,2.42
2022-12-28T16:23:59.244Z,2.28
2022-12-28T16:26:26.592Z,2.46
2022-12-28T16:28:53.407Z,2.40
2022-12-28T16:31:27.658Z,2.89
2022-12-28T16:34:02.167Z,3.30
2022-12-28T16:36:29.178Z,2.60
2022-12-28T16:38:56.403Z,2.55
2022-12-28T16:41:33.042Z,2.81
2022-12-28T16:44:21.567Z,2.89
2022-12-28T16:46:49.259Z,2.89
2022-12-28T16:49:16.113Z,3.04
2022-12-28T16:51:45.036Z,2.88
2022-12-28T16:54:19.937Z,2.83
2022-12-28T16:56:46.998Z,2.80
2022-12-28T16:59:15.379Z,3.01
2022-12-28T17:01:42.283Z,3.05
2022-12-28T17:04:09.919Z,3.04
2022-12-28T17:06:39.898Z,3.12
2022-12-28T17:09:07.205Z,4.63
2022-12-28T17:11:34.052Z,4.05
2022-12-28T17:14:04.833Z,3.68
2022-12-28T17:16:38.064Z,3.60
2022-12-28T17:19:04.864Z,3.43
2022-12-28T17:21:31.964Z,3.50
2022-12-28T17:24:00.831Z,3.24
2022-12-28T17:26:29.064Z,3.26
2022-12-28T17:28:56.178Z,3.18
2022-12-28T17:31:23.720Z,3.45
2022-12-28T17:33:55.227Z,3.21
2022-12-28T17:36:22.203Z,3.24
2022-12-28T17:38:48.907Z,3.23
2022-12-28T17:41:17.528Z,3.34
2022-12-28T17:43:53.191Z,3.41
2022-12-28T17:46:20.563Z,3.15
2022-12-28T17:48:48.890Z,3.20
2022-12-28T17:51:16.311Z,3.26
2022-12-28T17:53:48.288Z,3.19
2022-12-28T17:56:15.286Z,3.41
2022-12-28T17:58:45.344Z,3.44
2022-12-28T18:01:12.441Z,3.64
2022-12-28T18:03:39.925Z,3.43
2022-12-28T18:06:06.782Z,3.39
2022-12-28T18:08:33.640Z,3.49
2022-12-28T18:11:00.710Z,3.69
2022-12-28T18:13:27.449Z,3.53
2022-12-28T18:15:54.489Z,3.24
2022-12-28T18:18:21.419Z,3.25
2022-12-28T18:21:02.510Z,3.19
2022-12-28T18:23:29.437Z,3.30
2022-12-28T18:26:07.105Z,3.00
2022-12-28T18:28:35.192Z,3.10
2022-12-28T18:31:02.769Z,3.06
2022-12-28T18:33:30.230Z,2.93
2022-12-28T18:36:00.645Z,2.90
2022-12-28T18:38:27.832Z,2.94
2022-12-28T18:40:55.804Z,2.83
2022-12-28T18:43:25.408Z,2.78
2022-12-28T18:45:53.703Z,2.95
2022-12-28T18:48:20.380Z,3.17
2022-12-28T18:50:54.026Z,3.20
2022-12-28T18:53:21.473Z,3.85
2022-12-28T18:56:17.116Z,3.42
2022-12-28T18:58:44.695Z,3.84
2022-12-28T19:01:55.828Z,4.01
2022-12-28T19:04:08.575Z,3.17
2022-12-28T19:06:35.949Z,3.25
2022-12-28T19:09:11.947Z,3.23
2022-12-28T19:11:39.086Z,8.85
2022-12-28T19:14:07.797Z,6.84
2022-12-28T19:16:46.448Z,5.53
2022-12-28T19:19:14.083Z,5.08
2022-12-28T19:21:42.620Z,4.36
2022-12-28T19:24:17.491Z,5.37
2022-12-28T19:26:44.524Z,3.95
2022-12-28T19:29:12.524Z,3.76
2022-12-28T19:31:43.451Z,3.68
2022-12-28T19:34:10.284Z,7.76
2022-12-28T19:36:37.277Z,9.83
2022-12-28T19:39:04.392Z,5.58
2022-12-28T19:41:31.273Z,4.71
2022-12-28T19:43:58.002Z,5.01
2022-12-28T19:46:25.697Z,4.95
2022-12-28T19:48:52.734Z,4.48
2022-12-28T19:51:27.093Z,4.57
2022-12-28T19:53:59.460Z,4.26
2022-12-28T19:56:26.921Z,4.58
2022-12-28T19:58:57.858Z,4.61
2022-12-28T20:01:26.488Z,4.52
2022-12-28T20:03:53.492Z,4.46
2022-12-28T20:06:24.610Z,4.45
2022-12-28T20:08:54.214Z,3.79
2022-12-28T20:11:21.958Z,3.80
2022-12-28T20:13:59.558Z,4.17
2022-12-28T20:16:27.460Z,5.08
2022-12-28T20:18:54.351Z,4.81
2022-12-28T20:21:22.130Z,4.33
2022-12-28T20:23:49.903Z,4.33
2022-12-28T20:26:18.360Z,4.40
2022-12-28T20:28:45.169Z,4.21
2022-12-28T20:31:15.105Z,3.86
2022-12-28T20:33:42.745Z,4.02
2022-12-28T20:36:34.976Z,3.81
2022-12-28T20:39:01.801Z,3.73
2022-12-28T20:41:30.611Z,3.67
2022-12-28T20:43:58.533Z,3.47
2022-12-28T20:46:28.208Z,4.27
2022-12-28T20:48:55.312Z,6.73
2022-12-28T20:51:23.118Z,3.98
2022-12-28T20:53:50.281Z,3.31
2022-12-28T20:56:18.044Z,3.84
2022-12-28T20:58:45.425Z,3.42
2022-12-28T21:01:13.330Z,3.58
2022-12-28T21:03:40.148Z,3.37
2022-12-28T21:06:09.810Z,3.44
2022-12-28T21:08:36.931Z,3.40
2022-12-28T21:11:03.788Z,3.56
2022-12-28T21:13:32.025Z,3.49
2022-12-28T21:16:02.947Z,3.46
2022-12-28T21:18:29.702Z,3.77
2022-12-28T21:20:56.784Z,3.47
2022-12-28T21:23:23.528Z,3.57
2022-12-28T21:25:50.950Z,3.58
2022-12-28T21:28:19.400Z,3.55
2022-12-28T21:30:54.149Z,3.79
2022-12-28T21:33:22.110Z,3.60
2022-12-28T21:36:17.322Z,3.73
2022-12-28T21:38:44.653Z,3.75
2022-12-28T21:41:13.289Z,3.59
2022-12-28T21:43:40.127Z,3.47
2022-12-28T21:46:11.246Z,3.77
2022-12-28T21:48:38.213Z,3.90
2022-12-28T21:51:15.188Z,3.42
2022-12-28T21:53:43.224Z,3.74
2022-12-28T21:56:13.855Z,3.46
2022-12-28T21:58:40.980Z,3.60
2022-12-28T22:01:08.649Z,3.76
2022-12-28T22:03:35.712Z,3.67
2022-12-28T22:06:02.905Z,3.85
2022-12-28T22:08:32.933Z,3.87
2022-12-28T22:11:01.869Z,4.04
2022-12-28T22:13:29.129Z,4.03
2022-12-28T22:15:58.278Z,4.21
2022-12-28T22:18:44.898Z,3.97
2022-12-28T22:21:12.451Z,3.75
2022-12-28T22:23:39.234Z,4.10
2022-12-28T22:26:06.701Z,4.24
2022-12-28T22:28:33.534Z,4.13
2022-12-28T22:31:04.713Z,4.11
2022-12-28T22:33:31.957Z,4.37
2022-12-28T22:36:07.918Z,4.27
2022-12-28T22:38:36.019Z,4.07
2022-12-28T22:41:03.058Z,3.94
2022-12-28T22:43:31.281Z,4.19
2022-12-28T22:46:05.518Z,4.10
2022-12-28T22:48:32.808Z,4.11
2022-12-28T22:51:10.256Z,4.11
2022-12-28T22:53:37.162Z,3.82
2022-12-28T22:56:05.585Z,4.15
2022-12-28T22:58:32.335Z,4.17
2022-12-28T23:01:12.330Z,4.02
2022-12-28T23:03:40.206Z,4.32
2022-12-28T23:06:12.279Z,4.14
2022-12-28T23:08:39.049Z,4.30
2022-12-28T23:11:08.660Z,4.11
2022-12-28T23:13:36.038Z,4.42
2022-12-28T23:16:04.145Z,4.65
2022-12-28T23:18:31.596Z,4.37
2022-12-28T23:20:58.826Z,4.41
2022-12-28T23:23:25.937Z,4.31
2022-12-28T23:25:53.393Z,3.95
2022-12-28T23:28:20.479Z,3.88
2022-12-28T23:30:50.524Z,4.10
2022-12-28T23:33:18.660Z,4.22
2022-12-28T23:35:45.554Z,3.96
2022-12-28T23:38:12.470Z,4.33
2022-12-28T23:40:39.645Z,4.51
2022-12-28T23:43:07.651Z,4.06
2022-12-28T23:45:34.854Z,4.28
2022-12-28T23:48:01.566Z,4.01
2022-12-28T23:50:29.712Z,3.96
2022-12-28T23:52:56.757Z,4.40
2022-12-28T23:55:23.584Z,3.98
2022-12-28T23:57:50.808Z,4.22
